Time;durP1;ratioP1;P1;durP2;ratioP2;P2;SDS_P1;SDS_P2;PMS_P1;PMS_P2;Temp;Humidity;BMP_temperature;BMP_pressure;BME280_temperature;BME280_humidity;BME280_pressure;Samples;Min_cycle;Max_cycle;Signal;HPM_P1;HPM_P2
2023/12/01 00:01:11;;;;;;;32.42;15.88;;;;;;;2.47;98.18;98371.09;4971779;28;20507;-90
2023/12/01 00:03:38;;;;;;;32.33;16.00;;;;;;;2.48;97.55;98367.53;4964505;28;20050;-90
2023/12/01 00:06:06;;;;;;;34.72;16.63;;;;;;;2.48;97.49;98365.75;4964851;28;20051;-89
2023/12/01 00:08:33;;;;;;;37.63;16.00;;;;;;;2.51;97.13;98367.28;4981022;28;20049;-89
2023/12/01 00:10:59;;;;;;;32.88;15.73;;;;;;;2.53;97.08;98371.44;4965030;28;20065;-89
2023/12/01 00:13:26;;;;;;;35.15;17.40;;;;;;;2.52;97.30;98377.66;4932604;28;20518;-90
2023/12/01 00:15:53;;;;;;;33.70;15.93;;;;;;;2.49;97.59;98385.72;4964770;28;20053;-89
2023/12/01 00:18:20;;;;;;;30.42;15.18;;;;;;;2.48;97.49;98368.34;4949010;28;20054;-90
2023/12/01 00:20:47;;;;;;;27.40;14.40;;;;;;;2.50;98.11;98376.13;4964492;28;20049;-90
2023/12/01 00:23:14;;;;;;;31.10;15.27;;;;;;;2.54;97.85;98388.00;4966676;28;20486;-90
2023/12/01 00:25:41;;;;;;;37.17;16.35;;;;;;;2.52;97.79;98371.56;4980594;28;20069;-90
2023/12/01 00:28:08;;;;;;;35.05;17.10;;;;;;;2.56;97.35;98370.38;4965492;28;20051;-89
2023/12/01 00:30:35;;;;;;;36.42;16.80;;;;;;;2.59;96.22;98364.88;4971089;28;20050;-90
2023/12/01 00:33:02;;;;;;;39.55;17.02;;;;;;;2.51;96.70;98364.66;4948289;28;20066;-89
2023/12/01 00:35:30;;;;;;;37.15;16.75;;;;;;;2.56;96.24;98371.19;4964276;28;20105;-90
2023/12/01 00:37:57;;;;;;;33.63;16.25;;;;;;;2.53;96.89;98368.84;4954911;28;20159;-89
2023/12/01 00:40:24;;;;;;;33.33;16.42;;;;;;;2.55;97.15;98369.53;4948534;28;20070;-90
2023/12/01 00:42:52;;;;;;;34.30;15.98;;;;;;;2.59;97.20;98378.00;4963242;28;20102;-87
2023/12/01 00:45:18;;;;;;;36.47;15.75;;;;;;;2.54;97.82;98369.66;4953331;28;20051;-89
2023/12/01 00:47:45;;;;;;;33.35;15.27;;;;;;;2.51;97.31;98362.03;4932513;28;20045;-89
2023/12/01 00:50:12;;;;;;;35.33;17.77;;;;;;;2.53;97.52;98394.22;4964653;28;20446;-89
2023/12/01 00:52:39;;;;;;;39.38;17.63;;;;;;;2.53;97.73;98389.78;4948138;28;20050;-89
2023/12/01 00:55:06;;;;;;;34.33;16.52;;;;;;;2.55;96.82;98402.78;4953404;28;20057;-89
2023/12/01 00:57:33;;;;;;;41.33;16.65;;;;;;;2.59;96.55;98393.72;4946280;28;20058;-89
2023/12/01 01:00:00;;;;;;;37.25;17.83;;;;;;;2.57;96.72;98393.00;4969690;28;20415;-90
2023/12/01 01:02:27;;;;;;;41.38;18.77;;;;;;;2.55;96.84;98376.59;4979795;28;20138;-90
2023/12/01 01:04:54;;;;;;;36.95;16.85;;;;;;;2.52;96.79;98355.84;4963483;28;20130;-90
2023/12/01 01:07:21;;;;;;;39.33;17.10;;;;;;;2.57;96.61;98364.16;4963309;28;20123;-88
2023/12/01 01:09:48;;;;;;;40.30;17.73;;;;;;;2.55;96.85;98373.97;4962655;28;20059;-90
2023/12/01 01:12:15;;;;;;;40.30;18.73;;;;;;;2.54;97.74;98369.66;4947009;28;20065;-89
2023/12/01 01:14:41;;;;;;;36.50;17.30;;;;;;;2.52;98.06;98376.78;4962958;28;20136;-89
2023/12/01 01:17:08;;;;;;;49.63;19.63;;;;;;;2.55;98.25;98379.19;4963044;28;20561;-90
2023/12/01 01:19:35;;;;;;;32.60;16.38;;;;;;;2.48;98.00;98370.16;4966311;28;20058;-88
2023/12/01 01:22:02;;;;;;;37.78;17.40;;;;;;;2.51;97.77;98367.28;4970603;28;20058;-87
2023/12/01 01:24:29;;;;;;;38.28;16.65;;;;;;;2.52;97.29;98369.78;4966928;28;20121;-89
2023/12/01 01:26:56;;;;;;;35.60;16.13;;;;;;;2.56;97.10;98380.84;4949030;28;20044;-88
2023/12/01 01:29:22;;;;;;;31.95;15.73;;;;;;;2.55;96.64;98380.03;4947682;28;20042;-90
2023/12/01 01:31:49;;;;;;;39.33;16.17;;;;;;;2.54;97.34;98375.72;4978914;28;20043;-89
2023/12/01 01:34:16;;;;;;;31.23;14.50;;;;;;;2.57;97.33;98375.50;4947443;28;20074;-90
2023/12/01 01:36:46;;;;;;;33.00;15.23;;;;;;;2.56;96.79;98375.63;4947421;28;20470;-89
2023/12/01 01:39:13;;;;;;;34.67;16.42;;;;;;;2.58;96.98;98387.63;4947164;28;20038;-89
2023/12/01 01:41:39;;;;;;;37.35;15.25;;;;;;;2.52;96.55;98384.66;4978659;28;20051;-88
2023/12/01 01:44:07;;;;;;;38.00;17.02;;;;;;;2.55;96.78;98401.00;4979612;28;20053;-90
2023/12/01 01:46:35;;;;;;;35.80;17.48;;;;;;;2.57;97.24;98413.94;4946703;28;20134;-89
2023/12/01 01:49:05;;;;;;;35.90;16.25;;;;;;;2.61;97.23;98412.78;4964213;28;20049;-89
2023/12/01 01:51:34;;;;;;;37.58;16.65;;;;;;;2.52;97.51;98414.34;4947236;28;20105;-90
2023/12/01 01:54:02;;;;;;;42.50;17.60;;;;;;;2.54;97.69;98412.41;4959603;28;20051;-89
2023/12/01 01:56:31;;;;;;;39.67;19.05;;;;;;;2.59;97.13;98406.81;4960365;28;20047;-89
2023/12/01 01:58:58;;;;;;;38.63;18.20;;;;;;;2.64;95.80;98407.28;4958478;28;20586;-89
2023/12/01 02:01:25;;;;;;;37.35;17.35;;;;;;;2.64;95.68;98409.91;4961966;28;20467;-89
2023/12/01 02:03:53;;;;;;;39.58;19.00;;;;;;;2.66;95.85;98410.63;4994939;28;20062;-90
2023/12/01 02:06:30;;;;;;;37.55;17.67;;;;;;;2.66;96.70;98410.63;4962386;28;20086;-89
2023/12/01 02:08:58;;;;;;;38.17;17.58;;;;;;;2.65;95.37;98421.25;4942811;28;20505;-89
2023/12/01 02:11:25;;;;;;;39.35;17.88;;;;;;;2.68;95.13;98424.44;4963477;28;20059;-88
2023/12/01 02:13:53;;;;;;;37.47;18.00;;;;;;;2.69;94.77;98417.41;4950483;28;20050;-89
2023/12/01 02:16:19;;;;;;;35.17;17.58;;;;;;;2.69;94.39;98412.16;4956079;28;20134;-90
2023/12/01 02:18:48;;;;;;;36.33;16.77;;;;;;;2.71;94.98;98411.09;4946615;28;20054;-89
2023/12/01 02:21:15;;;;;;;42.67;19.20;;;;;;;2.73;94.23;98416.22;4967873;28;20051;-89
2023/12/01 02:23:44;;;;;;;41.28;18.27;;;;;;;2.67;93.69;98428.03;4961983;28;20063;-89
2023/12/01 02:26:12;;;;;;;45.90;19.45;;;;;;;2.68;93.71;98437.56;4948567;28;20057;-90
2023/12/01 02:28:39;;;;;;;37.30;17.45;;;;;;;2.68;93.56;98429.69;4976059;28;20047;-89
2023/12/01 02:31:06;;;;;;;43.55;18.98;;;;;;;2.70;93.26;98430.41;4961632;28;20042;-89
2023/12/01 02:33:33;;;;;;;41.80;18.70;;;;;;;2.72;93.22;98438.13;4961554;28;20042;-89
2023/12/01 02:36:00;;;;;;;39.88;17.77;;;;;;;2.69;92.90;98443.63;4957697;28;20415;-89
2023/12/01 02:38:27;;;;;;;37.88;18.52;;;;;;;2.66;92.96;98438.63;4962321;28;20043;-90
2023/12/01 02:40:54;;;;;;;38.78;17.20;;;;;;;2.69;93.05;98441.00;4952780;28;20101;-89
2023/12/01 02:43:21;;;;;;;41.83;18.30;;;;;;;2.70;93.29;98446.13;4962178;28;20069;-89
2023/12/01 02:45:48;;;;;;;43.40;18.92;;;;;;;2.72;93.13;98435.50;4978003;28;20137;-90
2023/12/01 02:48:18;;;;;;;42.60;18.88;;;;;;;2.72;92.88;98440.75;4961872;28;20558;-89
2023/12/01 02:50:45;;;;;;;39.33;18.15;;;;;;;2.71;93.21;98439.94;4935742;28;20127;-90
2023/12/01 02:53:13;;;;;;;40.55;17.75;;;;;;;2.68;93.51;98442.78;4959564;28;20047;-88
2023/12/01 02:55:40;;;;;;;37.50;16.52;;;;;;;2.68;93.83;98436.72;4928634;28;20057;-89
2023/12/01 02:58:07;;;;;;;40.30;17.45;;;;;;;2.68;94.52;98447.22;4945477;28;20058;-89
2023/12/01 03:00:33;;;;;;;35.28;16.40;;;;;;;2.66;95.33;98452.56;4958802;28;20074;-89
2023/12/01 03:03:01;;;;;;;35.40;16.08;;;;;;;2.64;95.57;98445.75;4927683;28;20536;-89
2023/12/01 03:05:28;;;;;;;32.38;15.25;;;;;;;2.63;96.11;98451.97;4980443;28;20050;-89
2023/12/01 03:07:54;;;;;;;36.00;16.00;;;;;;;2.67;95.75;98449.00;4971146;28;20430;-89
2023/12/01 03:10:23;;;;;;;36.83;17.17;;;;;;;2.68;96.08;98450.66;4961121;28;20051;-89
2023/12/01 03:12:50;;;;;;;37.65;17.52;;;;;;;2.69;96.17;98449.69;4945039;28;20051;-89
2023/12/01 03:15:18;;;;;;;42.60;17.65;;;;;;;2.70;95.62;98448.75;4930239;28;22711;-90
2023/12/01 03:17:45;;;;;;;43.80;18.15;;;;;;;2.67;94.94;98453.38;4977034;28;20051;-89
2023/12/01 03:20:14;;;;;;;38.00;16.30;;;;;;;2.69;95.16;98441.81;4961650;28;20053;-90
2023/12/01 03:22:44;;;;;;;43.85;18.67;;;;;;;2.70;94.96;98446.13;4962249;28;20129;-89
2023/12/01 03:25:11;;;;;;;41.65;17.77;;;;;;;2.71;95.19;98462.69;4962002;28;20073;-89
2023/12/01 03:27:46;;;;;;;37.17;16.45;;;;;;;2.70;95.08;98458.41;4946714;28;20050;-89
2023/12/01 03:30:14;;;;;;;42.65;17.45;;;;;;;2.70;95.23;98468.91;4957593;28;20412;-89
2023/12/01 03:32:48;;;;;;;44.78;18.65;;;;;;;2.70;94.13;98451.38;4958288;28;20090;-89
2023/12/01 03:35:18;;;;;;;42.42;18.42;;;;;;;2.71;94.29;98460.88;4942609;28;20043;-89
2023/12/01 03:37:45;;;;;;;45.05;18.55;;;;;;;2.71;94.33;98452.19;4936364;28;20066;-90
2023/12/01 03:40:12;;;;;;;38.30;15.77;;;;;;;2.72;95.12;98449.47;4975707;28;20067;-88
2023/12/01 03:42:45;;;;;;;38.72;17.02;;;;;;;2.74;94.92;98451.94;4933952;28;20054;-89
2023/12/01 03:45:13;;;;;;;39.72;17.83;;;;;;;2.73;95.42;98445.06;4949055;28;20469;-88
2023/12/01 03:47:42;;;;;;;39.55;16.80;;;;;;;2.76;95.59;98456.13;4965438;28;20461;-90
2023/12/01 03:50:11;;;;;;;39.00;17.33;;;;;;;2.69;96.33;98433.97;4951167;28;20481;-89
2023/12/01 03:52:42;;;;;;;39.85;17.73;;;;;;;2.69;96.45;98423.47;4945992;28;20066;-89
2023/12/01 03:55:10;;;;;;;42.20;17.77;;;;;;;2.71;96.49;98424.19;4981084;28;20047;-89
2023/12/01 03:57:38;;;;;;;42.95;18.10;;;;;;;2.70;96.38;98413.84;4981059;28;20050;-89
2023/12/01 04:00:16;;;;;;;38.78;17.15;;;;;;;2.70;95.84;98417.31;4949523;28;20051;-88
2023/12/01 04:02:46;;;;;;;41.55;17.73;;;;;;;2.73;95.33;98426.72;4953885;28;20065;-89
2023/12/01 04:05:18;;;;;;;41.33;17.50;;;;;;;2.74;94.56;98423.94;4968105;28;20513;-89
2023/12/01 04:07:53;;;;;;;43.95;19.23;;;;;;;2.69;94.24;98426.09;4953301;28;20039;-90
2023/12/01 04:10:27;;;;;;;44.58;19.55;;;;;;;2.70;94.91;98426.97;4956380;28;20097;-90
2023/12/01 04:12:56;;;;;;;36.97;16.25;;;;;;;2.69;96.10;98420.84;4949281;28;20058;-89
2023/12/01 04:15:26;;;;;;;44.08;18.35;;;;;;;2.63;94.94;98438.88;4932664;28;20057;-89
2023/12/01 04:17:54;;;;;;;47.08;19.08;;;;;;;2.66;95.03;98452.56;4949639;28;20516;-89
2023/12/01 04:20:21;;;;;;;50.45;20.63;;;;;;;2.65;95.15;98450.06;4966969;28;20051;-89
2023/12/01 04:22:57;;;;;;;46.92;19.65;;;;;;;2.61;95.08;98450.28;4949361;28;24869;-89
2023/12/01 04:25:25;;;;;;;47.20;20.23;;;;;;;2.64;95.14;98441.34;4952998;28;20534;-89
2023/12/01 04:27:52;;;;;;;57.85;21.85;;;;;;;2.61;95.62;98431.94;4931798;28;20061;-89
2023/12/01 04:30:20;;;;;;;50.35;20.65;;;;;;;2.56;95.74;98422.78;4980248;28;20161;-89
2023/12/01 04:32:52;;;;;;;47.15;19.15;;;;;;;2.60;95.86;98434.69;4964938;28;20061;-89
2023/12/01 04:35:26;;;;;;;49.03;19.80;;;;;;;2.61;95.85;98450.28;4949166;28;20043;-88
2023/12/01 04:37:54;;;;;;;53.13;20.90;;;;;;;2.60;96.41;98447.81;4945251;28;20534;-88
2023/12/01 04:40:21;;;;;;;46.70;20.15;;;;;;;2.55;96.34;98442.91;4949645;28;20043;-90
2023/12/01 04:42:50;;;;;;;51.33;20.80;;;;;;;2.57;96.44;98433.16;4948462;28;20051;-88
2023/12/01 04:45:19;;;;;;;46.60;20.52;;;;;;;2.61;96.22;98445.03;4969351;28;20046;-88
2023/12/01 04:47:50;;;;;;;53.05;21.17;;;;;;;2.58;95.98;98445.28;4964686;28;20066;-88
2023/12/01 04:50:20;;;;;;;54.65;23.17;;;;;;;2.57;96.20;98433.16;4932193;28;20539;-89
2023/12/01 04:52:50;;;;;;;52.60;21.98;;;;;;;2.51;96.67;98438.84;4970201;28;20047;-88
2023/12/01 04:55:18;;;;;;;57.28;23.00;;;;;;;2.50;96.51;98429.34;4963844;28;20648;-88
2023/12/01 04:57:46;;;;;;;55.90;23.15;;;;;;;2.48;97.12;98426.00;4932263;28;20409;-89
2023/12/01 05:00:20;;;;;;;56.03;23.90;;;;;;;2.40;97.03;98417.91;4931509;28;20503;-89
2023/12/01 05:02:59;;;;;;;53.90;22.35;;;;;;;2.44;96.94;98427.19;4956085;28;20420;-88
2023/12/01 05:05:30;;;;;;;51.72;22.08;;;;;;;2.47;97.04;98432.19;4963268;28;20043;-88
2023/12/01 05:07:59;;;;;;;54.15;23.45;;;;;;;2.41;97.32;98419.56;4979456;28;20043;-88
2023/12/01 05:10:29;;;;;;;56.38;23.65;;;;;;;2.43;97.02;98419.47;4964133;28;20046;-87
2023/12/01 05:12:57;;;;;;;54.65;23.25;;;;;;;2.41;97.25;98424.81;4964958;28;20051;-88
2023/12/01 05:15:25;;;;;;;60.85;24.13;;;;;;;2.42;97.40;98438.72;4962662;28;20133;-88
2023/12/01 05:18:01;;;;;;;58.25;24.13;;;;;;;2.40;97.47;98438.88;4945648;28;20523;-87
2023/12/01 05:20:28;;;;;;;58.80;24.33;;;;;;;2.43;97.39;98430.75;4934880;28;20574;-88
2023/12/01 05:23:00;;;;;;;67.45;27.83;;;;;;;2.41;97.62;98427.41;4938362;28;20480;-88
2023/12/01 05:25:32;;;;;;;70.10;31.75;;;;;;;2.41;97.73;98442.31;4962073;28;20050;-88
2023/12/01 05:28:01;;;;;;;60.57;23.67;;;;;;;2.41;97.79;98440.53;4943963;28;20046;-88
2023/12/01 05:30:29;;;;;;;67.57;25.33;;;;;;;2.44;97.39;98435.03;4965482;28;20499;-88
2023/12/01 05:32:58;;;;;;;70.38;26.73;;;;;;;2.41;97.11;98450.16;4982070;28;20050;-88
2023/12/01 05:35:26;;;;;;;67.30;31.88;;;;;;;2.43;97.17;98462.19;4982425;28;20053;-88
2023/12/01 05:37:54;;;;;;;59.05;24.30;;;;;;;2.40;97.46;98475.53;4983009;28;20049;-89
2023/12/01 05:40:24;;;;;;;60.38;24.95;;;;;;;2.43;97.26;98482.34;4983684;28;20050;-88
2023/12/01 05:42:55;;;;;;;67.60;27.27;;;;;;;2.43;97.29;98482.34;4982046;28;20100;-89
2023/12/01 05:45:25;;;;;;;60.08;25.73;;;;;;;2.42;97.02;98476.25;4966834;28;20053;-88
2023/12/01 05:47:52;;;;;;;60.97;25.85;;;;;;;2.36;97.29;98476.72;4984446;28;20050;-89
2023/12/01 05:50:27;;;;;;;60.38;25.55;;;;;;;2.35;97.18;98465.41;4981819;28;20053;-88
2023/12/01 05:52:56;;;;;;;67.72;26.17;;;;;;;2.37;97.51;98475.78;4966512;28;20131;-89
2023/12/01 05:55:25;;;;;;;58.97;23.83;;;;;;;2.34;97.76;98476.00;4975365;28;20042;-88
2023/12/01 05:57:52;;;;;;;64.43;24.88;;;;;;;2.36;97.79;98485.41;4950479;28;20042;-89
2023/12/01 06:00:24;;;;;;;58.97;23.85;;;;;;;2.35;97.94;98482.91;4997481;28;20057;-88
2023/12/01 06:02:51;;;;;;;63.22;24.40;;;;;;;2.38;98.05;98486.13;4981549;28;20066;-88
2023/12/01 06:05:19;;;;;;;61.60;25.77;;;;;;;2.37;97.95;98497.56;4945222;28;20058;-88
2023/12/01 06:07:58;;;;;;;65.10;25.33;;;;;;;2.35;98.47;98511.72;4930300;28;20059;-89
2023/12/01 06:10:29;;;;;;;58.15;24.23;;;;;;;2.35;98.46;98502.09;4961815;28;20145;-88
2023/12/01 06:12:56;;;;;;;59.35;23.75;;;;;;;2.41;98.31;98502.56;4962061;28;20114;-89
2023/12/01 06:15:24;;;;;;;60.95;24.38;;;;;;;2.38;98.05;98509.69;4956483;28;20146;-88
2023/12/01 06:17:51;;;;;;;63.38;25.60;;;;;;;2.35;97.97;98509.94;4942316;28;20516;-88
2023/12/01 06:20:22;;;;;;;60.17;24.15;;;;;;;2.39;97.81;98510.53;4943031;28;20043;-88
2023/12/01 06:22:56;;;;;;;62.67;25.92;;;;;;;2.39;98.04;98516.63;4967133;28;20114;-88
2023/12/01 06:25:32;;;;;;;67.28;26.50;;;;;;;2.33;98.59;98506.59;4943629;28;20054;-89
2023/12/01 06:28:01;;;;;;;67.95;27.35;;;;;;;2.38;98.12;98507.09;4964101;28;20073;-89
2023/12/01 06:30:33;;;;;;;60.92;25.65;;;;;;;2.40;98.08;98527.94;4941361;28;20133;-88
2023/12/01 06:33:02;;;;;;;64.68;25.20;;;;;;;2.37;97.97;98520.31;4974849;28;20155;-88
2023/12/01 06:35:29;;;;;;;68.70;26.85;;;;;;;2.30;98.23;98508.63;4942085;28;20223;-89
2023/12/01 06:37:56;;;;;;;67.82;25.63;;;;;;;2.32;98.08;98511.97;4954728;28;20055;-89
2023/12/01 06:40:23;;;;;;;66.90;24.25;;;;;;;2.31;98.16;98516.34;4946718;28;20054;-89
2023/12/01 06:42:52;;;;;;;70.43;27.77;;;;;;;2.31;98.07;98533.84;4962201;28;20071;-88
2023/12/01 06:45:26;;;;;;;66.00;25.73;;;;;;;2.33;98.14;98542.44;4946109;28;20070;-89
2023/12/01 06:47:58;;;;;;;63.83;24.98;;;;;;;2.33;98.15;98545.88;4962304;28;21426;-88
2023/12/01 06:50:27;;;;;;;66.03;25.48;;;;;;;2.33;98.29;98555.53;4966272;28;20414;-88
2023/12/01 06:52:54;;;;;;;65.53;24.38;;;;;;;2.31;98.14;98557.44;4934798;28;20463;-88
2023/12/01 06:55:21;;;;;;;60.40;25.63;;;;;;;2.30;98.09;98548.75;4975417;28;20050;-89
2023/12/01 06:57:49;;;;;;;61.40;23.90;;;;;;;2.32;98.23;98559.13;4961072;28;20110;-89
2023/12/01 07:00:29;;;;;;;58.58;24.63;;;;;;;2.27;98.25;98564.69;4950587;28;20062;-89
2023/12/01 07:03:07;;;;;;;58.00;23.92;;;;;;;2.31;98.10;98570.53;4977223;28;20054;-88
2023/12/01 07:05:37;;;;;;;59.42;23.77;;;;;;;2.30;98.41;98580.19;4938083;28;20055;-89
2023/12/01 07:08:11;;;;;;;59.78;25.33;;;;;;;2.32;98.16;98585.31;4953329;28;20050;-88
2023/12/01 07:10:38;;;;;;;57.58;23.13;;;;;;;2.32;98.17;98577.47;4977491;28;20117;-88
2023/12/01 07:13:05;;;;;;;63.38;24.63;;;;;;;2.26;98.00;98567.41;4945131;28;20054;-88
2023/12/01 07:15:32;;;;;;;60.85;25.58;;;;;;;2.32;98.00;98553.88;4963315;28;20057;-88
2023/12/01 07:17:59;;;;;;;64.25;25.05;;;;;;;2.30;98.46;98561.00;4946277;28;20058;-88
2023/12/01 07:20:26;;;;;;;65.72;24.90;;;;;;;2.30;99.73;98566.25;4945794;28;20055;-88
2023/12/01 07:22:53;;;;;;;59.33;23.83;;;;;;;2.26;100.00;98555.16;4959339;28;20046;-88
2023/12/01 07:25:25;;;;;;;60.15;25.23;;;;;;;2.29;100.00;98565.41;4966440;28;20058;-88
2023/12/01 07:28:03;;;;;;;59.40;23.23;;;;;;;2.25;100.00;98557.91;4965444;28;20047;-88
2023/12/01 07:30:30;;;;;;;54.20;22.15;;;;;;;2.32;100.00;98553.88;4966781;28;20053;-88
2023/12/01 07:32:59;;;;;;;56.10;24.35;;;;;;;2.36;100.00;98558.75;4981089;28;20057;-88
2023/12/01 07:35:26;;;;;;;56.60;23.67;;;;;;;2.36;100.00;98563.16;4951803;28;20051;-88
2023/12/01 07:37:53;;;;;;;56.15;23.42;;;;;;;2.41;99.76;98562.81;4948700;28;20507;-88
2023/12/01 07:40:21;;;;;;;57.95;24.23;;;;;;;2.38;99.11;98569.97;4967868;28;20484;-88
2023/12/01 07:42:51;;;;;;;58.83;24.33;;;;;;;2.38;99.05;98567.34;4965095;28;20070;-88
2023/12/01 07:45:19;;;;;;;51.45;23.42;;;;;;;2.41;99.50;98558.41;4969991;28;20054;-88
2023/12/01 07:47:46;;;;;;;57.95;24.00;;;;;;;2.44;98.13;98563.41;4923508;28;20560;-88
2023/12/01 07:50:17;;;;;;;58.38;23.15;;;;;;;2.37;97.93;98557.81;4982497;28;20049;-88
2023/12/01 07:52:45;;;;;;;53.95;24.13;;;;;;;2.44;97.52;98568.66;4975664;28;20055;-88
2023/12/01 07:55:12;;;;;;;56.58;23.45;;;;;;;2.42;97.71;98570.56;4934580;28;20105;-88
2023/12/01 07:57:38;;;;;;;56.38;24.42;;;;;;;2.43;97.77;98558.31;4966407;28;20061;-88
2023/12/01 08:00:14;;;;;;;51.72;22.17;;;;;;;2.43;97.50;98564.38;4947743;28;20058;-88
2023/12/01 08:02:42;;;;;;;53.25;22.13;;;;;;;2.45;97.84;98564.28;4952516;28;20130;-87
2023/12/01 08:05:13;;;;;;;53.92;22.92;;;;;;;2.44;97.26;98555.56;4947872;28;20053;-87
2023/12/01 08:07:53;;;;;;;54.20;22.33;;;;;;;2.42;97.19;98548.75;4960973;28;20066;-88
2023/12/01 08:10:24;;;;;;;51.42;21.85;;;;;;;2.49;97.22;98563.91;4964148;28;20101;-88
2023/12/01 08:12:56;;;;;;;48.72;21.77;;;;;;;2.43;97.21;98563.53;4930689;28;20050;-88
2023/12/01 08:15:26;;;;;;;53.28;22.10;;;;;;;2.45;97.07;98569.50;4948840;28;20050;-87
2023/12/01 08:17:56;;;;;;;53.78;21.45;;;;;;;2.44;97.79;98573.88;4952769;28;20272;-88
2023/12/01 08:20:24;;;;;;;53.70;22.27;;;;;;;2.40;96.51;98580.34;4970925;28;20109;-88
2023/12/01 08:22:50;;;;;;;52.28;21.98;;;;;;;2.42;96.36;98574.97;4966050;28;20419;-88
2023/12/01 08:25:17;;;;;;;50.25;21.30;;;;;;;2.44;96.06;98576.50;4982603;28;20071;-87
2023/12/01 08:27:44;;;;;;;53.75;21.63;;;;;;;2.47;96.18;98585.94;4963093;28;20055;-87
2023/12/01 08:30:11;;;;;;;55.30;23.58;;;;;;;2.46;96.31;98589.50;4962000;28;20111;-87
2023/12/01 08:32:47;;;;;;;52.15;21.15;;;;;;;2.46;96.27;98600.81;4967332;28;20050;-87
2023/12/01 08:35:15;;;;;;;49.78;21.55;;;;;;;2.52;96.59;98599.50;4967287;28;20039;-87
2023/12/01 08:37:42;;;;;;;50.60;20.67;;;;;;;2.49;96.01;98592.72;4961542;28;20051;-88
2023/12/01 08:40:11;;;;;;;45.72;19.27;;;;;;;2.54;96.49;98603.69;4962870;28;20055;-87
2023/12/01 08:42:40;;;;;;;54.30;21.63;;;;;;;2.55;97.36;98612.41;4961813;28;20054;-88
2023/12/01 08:45:08;;;;;;;52.47;21.80;;;;;;;2.52;98.75;98602.13;4971976;28;20054;-88
2023/12/01 08:47:35;;;;;;;51.30;20.67;;;;;;;2.51;98.83;98600.47;4954642;28;20147;-88
2023/12/01 08:50:02;;;;;;;47.40;20.30;;;;;;;2.52;98.96;98591.66;4945328;28;20202;-88
2023/12/01 08:52:37;;;;;;;51.75;20.88;;;;;;;2.49;98.82;98571.75;4960441;28;20055;-88
2023/12/01 08:55:17;;;;;;;50.17;19.88;;;;;;;2.50;97.90;98577.84;4955288;28;20051;-88
2023/12/01 08:57:44;;;;;;;43.97;20.33;;;;;;;2.54;97.82;98598.44;4935764;28;20053;-88
2023/12/01 09:00:12;;;;;;;47.67;20.92;;;;;;;2.52;97.77;98603.00;4927547;28;22725;-88
2023/12/01 09:02:38;;;;;;;48.17;21.42;;;;;;;2.54;97.84;98597.63;4960772;28;20054;-87
2023/12/01 09:05:06;;;;;;;49.40;21.08;;;;;;;2.56;97.85;98595.72;4938635;28;20448;-88
2023/12/01 09:07:33;;;;;;;49.90;21.50;;;;;;;2.54;97.55;98595.81;4960378;28;20046;-88
2023/12/01 09:10:00;;;;;;;47.20;20.05;;;;;;;2.57;97.22;98602.63;4961562;28;20047;-88
2023/12/01 09:12:27;;;;;;;48.67;20.58;;;;;;;2.58;96.70;98601.69;4963169;28;20046;-88
2023/12/01 09:14:54;;;;;;;47.22;19.55;;;;;;;2.50;95.31;98607.50;4927916;28;20091;-88
2023/12/01 09:17:21;;;;;;;49.47;21.92;;;;;;;2.55;95.22;98608.00;4955456;28;20047;-88
2023/12/01 09:19:49;;;;;;;53.58;21.02;;;;;;;2.55;95.42;98607.16;4952971;28;20797;-88
2023/12/01 09:22:16;;;;;;;45.53;19.23;;;;;;;2.53;95.65;98601.19;4942542;28;20125;-89
2023/12/01 09:24:45;;;;;;;43.30;18.73;;;;;;;2.31;94.87;98615.06;4946588;28;20043;-88
2023/12/01 09:27:11;;;;;;;46.05;20.08;;;;;;;2.37;93.99;98622.47;4938692;28;20080;-88
2023/12/01 09:29:38;;;;;;;46.90;19.13;;;;;;;2.43;94.17;98613.31;4961453;28;20050;-89
2023/12/01 09:32:05;;;;;;;40.28;17.55;;;;;;;2.42;93.68;98614.25;4942032;28;20043;-89
2023/12/01 09:34:32;;;;;;;43.97;19.67;;;;;;;2.41;94.15;98615.22;4960728;28;20054;-88
2023/12/01 09:36:59;;;;;;;47.15;20.58;;;;;;;2.42;93.80;98603.78;4975214;28;20140;-89
2023/12/01 09:39:29;;;;;;;45.70;20.27;;;;;;;2.46;93.09;98603.44;4960810;28;20078;-89
2023/12/01 09:41:57;;;;;;;44.03;19.42;;;;;;;2.58;93.66;98620.03;4966172;28;20042;-89
2023/12/01 09:44:24;;;;;;;51.30;22.42;;;;;;;2.56;93.70;98616.69;4945660;28;20531;-88
2023/12/01 09:46:52;;;;;;;42.83;19.50;;;;;;;2.48;93.62;98613.81;4967623;28;20051;-89
2023/12/01 09:49:19;;;;;;;47.80;20.77;;;;;;;2.52;94.16;98613.47;4933173;28;20054;-88
2023/12/01 09:51:46;;;;;;;45.35;20.30;;;;;;;2.51;94.05;98608.34;4960826;28;20054;-89
2023/12/01 09:54:13;;;;;;;49.13;21.05;;;;;;;2.52;94.03;98618.72;4944977;28;20581;-89
2023/12/01 09:56:40;;;;;;;47.42;20.95;;;;;;;2.54;93.48;98623.81;4968175;28;20570;-88
2023/12/01 09:59:07;;;;;;;51.70;21.50;;;;;;;2.55;93.82;98628.97;4960574;28;20176;-89
2023/12/01 10:01:35;;;;;;;51.25;20.65;;;;;;;2.56;94.46;98628.00;4970433;28;20472;-88
2023/12/01 10:04:02;;;;;;;48.30;19.67;;;;;;;2.56;94.13;98611.44;4958959;28;20500;-88
2023/12/01 10:06:29;;;;;;;47.88;20.13;;;;;;;2.55;93.43;98618.47;4939380;28;20528;-88
2023/12/01 10:08:56;;;;;;;49.33;20.60;;;;;;;2.56;93.53;98600.97;4951734;28;20146;-89
2023/12/01 10:11:25;;;;;;;52.17;20.90;;;;;;;2.60;93.96;98612.91;4945018;28;20269;-88
2023/12/01 10:13:52;;;;;;;53.47;21.17;;;;;;;2.60;94.01;98615.53;4968343;28;20102;-89
2023/12/01 10:16:20;;;;;;;56.15;21.65;;;;;;;2.57;93.56;98621.81;4961957;28;20126;-89
2023/12/01 10:19:04;;;;;;;59.67;21.33;;;;;;;2.48;94.18;98617.25;4961165;28;20708;-88
2023/12/01 10:21:44;;;;;;;55.20;21.83;;;;;;;2.51;94.29;98626.69;4961151;28;20054;-88
2023/12/01 10:24:15;;;;;;;49.88;21.08;;;;;;;2.43;93.42;98624.63;4947901;28;20053;-89
2023/12/01 10:26:43;;;;;;;54.85;20.52;;;;;;;2.49;92.99;98607.63;4986451;28;20046;-88
2023/12/01 10:29:30;;;;;;;56.88;21.48;;;;;;;2.38;92.93;98596.16;4963199;28;20051;-89
2023/12/01 10:32:04;;;;;;;54.58;20.73;;;;;;;2.42;93.69;98599.41;4960856;28;20124;-88
2023/12/01 10:34:31;;;;;;;58.83;21.98;;;;;;;2.41;93.40;98589.03;4962087;28;20269;-89
2023/12/01 10:36:58;;;;;;;61.38;20.55;;;;;;;2.49;94.10;98584.84;4962224;28;20065;-88
2023/12/01 10:39:30;;;;;;;57.25;21.50;;;;;;;2.50;93.36;98580.47;4954398;28;20126;-89
2023/12/01 10:41:58;;;;;;;58.03;21.73;;;;;;;2.52;93.68;98570.69;4977653;28;20422;-88
2023/12/01 10:44:31;;;;;;;59.20;22.80;;;;;;;2.46;94.12;98571.16;4969807;28;20208;-88
2023/12/01 10:46:59;;;;;;;50.10;20.70;;;;;;;2.55;93.79;98580.97;4940519;28;20046;-89
2023/12/01 10:49:26;;;;;;;60.63;22.88;;;;;;;2.53;93.46;98569.75;4963050;28;20051;-89
2023/12/01 10:51:54;;;;;;;55.00;22.05;;;;;;;2.52;93.46;98560.22;4951598;28;20049;-89
2023/12/01 10:54:24;;;;;;;62.70;23.15;;;;;;;2.48;93.34;98567.47;4961845;28;20050;-89
2023/12/01 10:57:10;;;;;;;62.58;22.77;;;;;;;2.44;93.76;98570.44;4968025;28;20051;-89
2023/12/01 10:59:38;;;;;;;59.45;20.38;;;;;;;2.50;93.97;98576.06;4958334;28;20043;-89
2023/12/01 11:02:06;;;;;;;57.97;22.35;;;;;;;2.42;93.62;98570.56;4976514;28;20046;-89
2023/12/01 11:04:33;;;;;;;61.15;22.50;;;;;;;2.47;93.75;98578.06;4949861;28;20051;-89
2023/12/01 11:07:15;;;;;;;69.70;24.55;;;;;;;2.47;94.42;98572.81;4965452;28;20120;-89
2023/12/01 11:09:57;;;;;;;61.70;23.67;;;;;;;2.48;94.42;98577.13;4963276;28;20050;-89
2023/12/01 11:12:55;;;;;;;62.60;23.00;;;;;;;2.36;94.31;98577.09;4972925;28;21011;-89
2023/12/01 11:15:24;;;;;;;56.83;22.02;;;;;;;2.41;94.20;98578.53;4959209;28;20058;-89
2023/12/01 11:17:51;;;;;;;59.00;21.73;;;;;;;2.44;94.30;98589.63;4965072;28;20057;-89
2023/12/01 11:20:32;;;;;;;55.28;21.52;;;;;;;2.34;94.07;98586.88;4939788;28;20046;-89
2023/12/01 11:23:11;;;;;;;63.53;23.55;;;;;;;2.38;94.85;98584.84;4980610;28;20126;-89
2023/12/01 11:25:43;;;;;;;53.63;21.80;;;;;;;2.42;94.36;98580.19;4964656;28;20138;-90
2023/12/01 11:28:34;;;;;;;61.20;22.13;;;;;;;2.41;93.66;98579.38;4951499;28;20042;-89
2023/12/01 11:31:07;;;;;;;65.78;23.80;;;;;;;2.41;94.60;98582.00;4986958;28;20058;-88
2023/12/01 11:33:45;;;;;;;65.68;23.70;;;;;;;2.28;95.36;98581.25;4947159;28;20106;-89